sensor_id;sensor_type;location;lat;lon;timestamp;pressure;altitude;pressure_sealevel;temperature;humidity
14293;BME280;62290;59.420;17.842;2022-12-07T00:01:19;100593.72;;;26.08;17.89
14293;BME280;62290;59.420;17.842;2022-12-07T00:03:50;100588.50;;;26.06;18.04
14293;BME280;62290;59.420;17.842;2022-12-07T00:06:20;100590.16;;;26.07;17.79
14293;BME280;62290;59.420;17.842;2022-12-07T00:08:48;100580.38;;;26.06;18.13
14293;BME280;62290;59.420;17.842;2022-12-07T00:11:18;100584.06;;;26.05;18.02
14293;BME280;62290;59.420;17.842;2022-12-07T00:13:47;100581.53;;;26.04;17.51
14293;BME280;62290;59.420;17.842;2022-12-07T00:16:20;100579.69;;;26.04;17.57
14293;BME280;62290;59.420;17.842;2022-12-07T00:18:49;100580.50;;;26.05;17.89
14293;BME280;62290;59.420;17.842;2022-12-07T00:21:20;100573.56;;;26.02;17.44
14293;BME280;62290;59.420;17.842;2022-12-07T00:23:50;100579.53;;;26.06;17.60
14293;BME280;62290;59.420;17.842;2022-12-07T00:26:19;100572.13;;;26.08;17.64
14293;BME280;62290;59.420;17.842;2022-12-07T00:28:49;100564.00;;;26.08;17.30
14293;BME280;62290;59.420;17.842;2022-12-07T00:31:19;100572.13;;;26.08;17.14
14293;BME280;62290;59.420;17.842;2022-12-07T00:33:48;100567.56;;;26.08;17.01
14293;BME280;62290;59.420;17.842;2022-12-07T00:36:18;100559.78;;;26.05;16.99
14293;BME280;62290;59.420;17.842;2022-12-07T00:38:54;100562.94;;;26.01;17.27
14293;BME280;62290;59.420;17.842;2022-12-07T00:41:24;100551.44;;;25.99;17.20
14293;BME280;62290;59.420;17.842;2022-12-07T00:43:52;100556.97;;;25.97;16.87
14293;BME280;62290;59.420;17.842;2022-12-07T00:46:21;100556.28;;;25.95;17.16
14293;BME280;62290;59.420;17.842;2022-12-07T00:48:50;100558.44;;;25.92;16.88
14293;BME280;62290;59.420;17.842;2022-12-07T00:51:20;100554.91;;;25.91;16.87
14293;BME280;62290;59.420;17.842;2022-12-07T00:53:48;100539.63;;;25.82;16.71
14293;BME280;62290;59.420;17.842;2022-12-07T00:56:20;100557.44;;;25.93;17.04
14293;BME280;62290;59.420;17.842;2022-12-07T00:58:53;100549.50;;;25.91;16.64
14293;BME280;62290;59.420;17.842;2022-12-07T01:01:22;100552.66;;;25.87;16.67
14293;BME280;62290;59.420;17.842;2022-12-07T01:03:50;100562.75;;;25.85;16.82
14293;BME280;62290;59.420;17.842;2022-12-07T01:06:20;100554.44;;;25.78;16.79
14293;BME280;62290;59.420;17.842;2022-12-07T01:08:48;100556.84;;;25.81;17.09
14293;BME280;62290;59.420;17.842;2022-12-07T01:11:20;100553.28;;;25.81;16.71
14293;BME280;62290;59.420;17.842;2022-12-07T01:13:50;100557.13;;;25.78;16.49
14293;BME280;62290;59.420;17.842;2022-12-07T01:16:19;100551.56;;;25.80;16.72
14293;BME280;62290;59.420;17.842;2022-12-07T01:18:49;100532.75;;;25.70;16.79
14293;BME280;62290;59.420;17.842;2022-12-07T01:21:19;100552.44;;;25.80;17.02
14293;BME280;62290;59.420;17.842;2022-12-07T01:23:48;100547.88;;;25.81;16.62
14293;BME280;62290;59.420;17.842;2022-12-07T01:26:19;100553.28;;;25.81;16.54
14293;BME280;62290;59.420;17.842;2022-12-07T01:28:48;100548.00;;;25.79;16.83
14293;BME280;62290;59.420;17.842;2022-12-07T01:31:18;100551.56;;;25.80;16.75
14293;BME280;62290;59.420;17.842;2022-12-07T01:33:48;100534.53;;;25.79;16.39
14293;BME280;62290;59.420;17.842;2022-12-07T01:36:18;100543.00;;;25.84;16.55
14293;BME280;62290;59.420;17.842;2022-12-07T01:38:48;100543.00;;;25.84;16.43
14293;BME280;62290;59.420;17.842;2022-12-07T01:41:20;100534.91;;;25.84;16.64
14293;BME280;62290;59.420;17.842;2022-12-07T01:44:15;100538.63;;;25.83;16.21
14293;BME280;62290;59.420;17.842;2022-12-07T01:46:45;100529.84;;;25.81;16.79
14293;BME280;62290;59.420;17.842;2022-12-07T01:49:18;100536.78;;;25.84;16.55
14293;BME280;62290;59.420;17.842;2022-12-07T01:51:48;100541.94;;;25.77;16.22
14293;BME280;62290;59.420;17.842;2022-12-07T01:54:20;100542.91;;;25.76;16.74
14293;BME280;62290;59.420;17.842;2022-12-07T01:56:52;100533.44;;;25.72;16.70
14293;BME280;62290;59.420;17.842;2022-12-07T01:59:23;100519.16;;;25.62;16.34
14293;BME280;62290;59.420;17.842;2022-12-07T02:01:53;100534.88;;;25.66;16.76
14293;BME280;62290;59.420;17.842;2022-12-07T02:04:23;100518.06;;;25.55;16.53
14293;BME280;62290;59.420;17.842;2022-12-07T02:06:52;100528.94;;;25.63;16.35
14293;BME280;62290;59.420;17.842;2022-12-07T02:09:21;100535.47;;;25.60;16.79
14293;BME280;62290;59.420;17.842;2022-12-07T02:11:51;100535.66;;;25.59;16.73
14293;BME280;62290;59.420;17.842;2022-12-07T02:14:20;100530.72;;;25.54;16.70
14293;BME280;62290;59.420;17.842;2022-12-07T02:16:57;100534.09;;;25.56;16.65
14293;BME280;62290;59.420;17.842;2022-12-07T02:19:52;100527.00;;;25.55;16.56
14293;BME280;62290;59.420;17.842;2022-12-07T02:22:42;100528.88;;;25.55;16.36
14293;BME280;62290;59.420;17.842;2022-12-07T02:25:23;100533.53;;;25.53;16.35
14293;BME280;62290;59.420;17.842;2022-12-07T02:27:59;100526.16;;;25.55;16.73
14293;BME280;62290;59.420;17.842;2022-12-07T02:30:35;100524.47;;;25.54;16.75
14293;BME280;62290;59.420;17.842;2022-12-07T02:33:11;100524.75;;;25.51;16.31
14293;BME280;62290;59.420;17.842;2022-12-07T02:35:45;100522.06;;;25.51;16.23
14293;BME280;62290;59.420;17.842;2022-12-07T02:38:19;100518.22;;;25.53;16.64
14293;BME280;62290;59.420;17.842;2022-12-07T02:40:52;100525.31;;;25.54;16.17
14293;BME280;62290;59.420;17.842;2022-12-07T02:43:24;100517.22;;;25.54;16.25
14293;BME280;62290;59.420;17.842;2022-12-07T02:45:57;100512.34;;;25.58;16.26
14293;BME280;62290;59.420;17.842;2022-12-07T02:48:28;100506.25;;;25.56;16.32
14293;BME280;62290;59.420;17.842;2022-12-07T02:50:56;100495.16;;;25.59;16.09
14293;BME280;62290;59.420;17.842;2022-12-07T02:53:31;100505.66;;;25.62;16.25
14293;BME280;62290;59.420;17.842;2022-12-07T02:56:03;100513.59;;;25.63;16.08
14293;BME280;62290;59.420;17.842;2022-12-07T02:58:45;100513.47;;;25.65;16.20
14293;BME280;62290;59.420;17.842;2022-12-07T03:01:27;100502.97;;;25.62;16.17
14293;BME280;62290;59.420;17.842;2022-12-07T03:04:02;100503.66;;;25.64;16.44
14293;BME280;62290;59.420;17.842;2022-12-07T03:06:42;100498.25;;;25.64;16.32
14293;BME280;62290;59.420;17.842;2022-12-07T03:09:20;100502.66;;;25.65;16.01
14293;BME280;62290;59.420;17.842;2022-12-07T03:11:55;100500.97;;;25.64;16.02
14293;BME280;62290;59.420;17.842;2022-12-07T03:14:30;100501.94;;;25.63;16.47
14293;BME280;62290;59.420;17.842;2022-12-07T03:17:05;100484.28;;;25.51;16.13
14293;BME280;62290;59.420;17.842;2022-12-07T03:19:36;100495.16;;;25.59;16.05
14293;BME280;62290;59.420;17.842;2022-12-07T03:22:07;100495.47;;;25.56;16.47
14293;BME280;62290;59.420;17.842;2022-12-07T03:24:40;100499.78;;;25.49;16.26
14293;BME280;62290;59.420;17.842;2022-12-07T03:27:11;100495.38;;;25.48;16.22
14293;BME280;62290;59.420;17.842;2022-12-07T03:29:46;100488.31;;;25.47;16.09
14293;BME280;62290;59.420;17.842;2022-12-07T03:32:21;100475.97;;;25.35;16.34
14293;BME280;62290;59.420;17.842;2022-12-07T03:34:54;100488.56;;;25.44;16.52
14293;BME280;62290;59.420;17.842;2022-12-07T03:37:30;100489.72;;;25.41;16.31
14293;BME280;62290;59.420;17.842;2022-12-07T03:40:05;100496.09;;;25.40;16.34
14293;BME280;62290;59.420;17.842;2022-12-07T03:42:34;100484.63;;;25.38;16.59
14293;BME280;62290;59.420;17.842;2022-12-07T03:45:04;100478.66;;;25.35;16.61
14293;BME280;62290;59.420;17.842;2022-12-07T03:47:39;100485.59;;;25.37;16.52
14293;BME280;62290;59.420;17.842;2022-12-07T03:50:13;100474.81;;;25.37;16.31
14293;BME280;62290;59.420;17.842;2022-12-07T03:52:45;100479.38;;;25.37;16.53
14293;BME280;62290;59.420;17.842;2022-12-07T03:55:19;100470.28;;;25.38;16.58
14293;BME280;62290;59.420;17.842;2022-12-07T03:57:53;100474.00;;;25.37;16.26
14293;BME280;62290;59.420;17.842;2022-12-07T04:00:23;100477.69;;;25.36;16.57
14293;BME280;62290;59.420;17.842;2022-12-07T04:02:53;100457.38;;;25.32;16.35
14293;BME280;62290;59.420;17.842;2022-12-07T04:05:21;100470.53;;;25.44;16.43
14293;BME280;62290;59.420;17.842;2022-12-07T04:07:49;100468.41;;;25.48;16.61
14293;BME280;62290;59.420;17.842;2022-12-07T04:10:17;100460.84;;;25.51;16.18
14293;BME280;62290;59.420;17.842;2022-12-07T04:12:45;100452.59;;;25.53;16.54
14293;BME280;62290;59.420;17.842;2022-12-07T04:15:13;100452.16;;;25.57;16.44
14293;BME280;62290;59.420;17.842;2022-12-07T04:17:41;100449.97;;;25.61;16.24
14293;BME280;62290;59.420;17.842;2022-12-07T04:20:12;100447.16;;;25.62;16.12
14293;BME280;62290;59.420;17.842;2022-12-07T04:22:40;100442.75;;;25.61;16.11
14293;BME280;62290;59.420;17.842;2022-12-07T04:25:08;100448.13;;;25.61;16.52
14293;BME280;62290;59.420;17.842;2022-12-07T04:27:36;100443.44;;;25.63;16.28
14293;BME280;62290;59.420;17.842;2022-12-07T04:30:05;100438.72;;;25.65;16.15
14293;BME280;62290;59.420;17.842;2022-12-07T04:32:33;100427.94;;;25.65;16.23
14293;BME280;62290;59.420;17.842;2022-12-07T04:35:01;100423.38;;;25.66;16.09
14293;BME280;62290;59.420;17.842;2022-12-07T04:37:30;100415.84;;;25.69;16.44
14293;BME280;62290;59.420;17.842;2022-12-07T04:39:58;100421.06;;;25.71;16.30
14293;BME280;62290;59.420;17.842;2022-12-07T04:42:27;100414.69;;;25.72;16.16
14293;BME280;62290;59.420;17.842;2022-12-07T04:44:55;100420.06;;;25.72;16.50
14293;BME280;62290;59.420;17.842;2022-12-07T04:47:23;100414.97;;;25.69;16.10
14293;BME280;62290;59.420;17.842;2022-12-07T04:49:51;100413.44;;;25.66;16.25
14293;BME280;62290;59.420;17.842;2022-12-07T04:52:19;100412.75;;;25.64;16.48
14293;BME280;62290;59.420;17.842;2022-12-07T04:54:48;100412.59;;;25.66;16.11
14293;BME280;62290;59.420;17.842;2022-12-07T04:57:16;100412.19;;;25.61;16.09
14293;BME280;62290;59.420;17.842;2022-12-07T04:59:44;100413.06;;;25.61;16.24
14293;BME280;62290;59.420;17.842;2022-12-07T05:02:12;100411.53;;;25.59;16.50
14293;BME280;62290;59.420;17.842;2022-12-07T05:04:40;100411.53;;;25.59;16.32
14293;BME280;62290;59.420;17.842;2022-12-07T05:07:08;100408.81;;;25.59;16.59
14293;BME280;62290;59.420;17.842;2022-12-07T05:09:36;100403.72;;;25.56;16.19
14293;BME280;62290;59.420;17.842;2022-12-07T05:12:05;100410.84;;;25.57;16.22
14293;BME280;62290;59.420;17.842;2022-12-07T05:14:33;100408.28;;;25.55;16.09
14293;BME280;62290;59.420;17.842;2022-12-07T05:17:01;100403.72;;;25.56;16.20
14293;BME280;62290;59.420;17.842;2022-12-07T05:19:30;100402.56;;;25.58;16.16
14293;BME280;62290;59.420;17.842;2022-12-07T05:21:58;100397.03;;;25.60;16.13
14293;BME280;62290;59.420;17.842;2022-12-07T05:24:26;100397.16;;;25.58;16.66
14293;BME280;62290;59.420;17.842;2022-12-07T05:26:54;100396.00;;;25.61;16.65
14293;BME280;62290;59.420;17.842;2022-12-07T05:29:23;100399.41;;;25.63;16.54
14293;BME280;62290;59.420;17.842;2022-12-07T05:31:51;100393.69;;;25.66;16.29
14293;BME280;62290;59.420;17.842;2022-12-07T05:34:19;100398.78;;;25.69;16.06
14293;BME280;62290;59.420;17.842;2022-12-07T05:36:47;100391.38;;;25.71;16.24
14293;BME280;62290;59.420;17.842;2022-12-07T05:39:16;100387.69;;;25.72;16.14
14293;BME280;62290;59.420;17.842;2022-12-07T05:41:44;100378.59;;;25.73;16.34
14293;BME280;62290;59.420;17.842;2022-12-07T05:44:31;100381.13;;;25.74;16.11
14293;BME280;62290;59.420;17.842;2022-12-07T05:46:59;100389.06;;;25.76;15.98
14293;BME280;62290;59.420;17.842;2022-12-07T05:49:27;100380.81;;;25.77;16.24
14293;BME280;62290;59.420;17.842;2022-12-07T05:51:55;100387.38;;;25.75;16.04
14293;BME280;62290;59.420;17.842;2022-12-07T05:54:23;100386.06;;;25.79;16.48
14293;BME280;62290;59.420;17.842;2022-12-07T05:56:51;100386.78;;;25.81;16.26
14293;BME280;62290;59.420;17.842;2022-12-07T05:59:19;100381.38;;;25.81;16.39
14293;BME280;62290;59.420;17.842;2022-12-07T06:01:57;100386.59;;;25.83;15.93
14293;BME280;62290;59.420;17.842;2022-12-07T06:04:27;100383.06;;;25.82;16.44
14293;BME280;62290;59.420;17.842;2022-12-07T06:06:56;100384.75;;;25.83;16.43
14293;BME280;62290;59.420;17.842;2022-12-07T06:09:26;100383.06;;;25.82;15.91
14293;BME280;62290;59.420;17.842;2022-12-07T06:11:55;100386.91;;;25.80;16.34
14293;BME280;62290;59.420;17.842;2022-12-07T06:14:40;100392.78;;;25.75;16.17
14293;BME280;62290;59.420;17.842;2022-12-07T06:17:10;100390.38;;;25.72;15.97
14293;BME280;62290;59.420;17.842;2022-12-07T06:19:39;100389.16;;;25.66;16.42
14293;BME280;62290;59.420;17.842;2022-12-07T06:22:07;100389.00;;;25.68;16.28
14293;BME280;62290;59.420;17.842;2022-12-07T06:24:36;100392.03;;;25.65;15.96
14293;BME280;62290;59.420;17.842;2022-12-07T06:27:04;100376.06;;;25.54;16.49
14293;BME280;62290;59.420;17.842;2022-12-07T06:29:32;100385.53;;;25.58;16.15
14293;BME280;62290;59.420;17.842;2022-12-07T06:32:00;100395.88;;;25.62;16.46
14293;BME280;62290;59.420;17.842;2022-12-07T06:34:30;100386.25;;;25.60;16.29
14293;BME280;62290;59.420;17.842;2022-12-07T06:36:58;100390.22;;;25.56;16.11
14293;BME280;62290;59.420;17.842;2022-12-07T06:39:27;100390.22;;;25.56;16.48
14293;BME280;62290;59.420;17.842;2022-12-07T06:41:56;100391.78;;;25.58;16.12
14293;BME280;62290;59.420;17.842;2022-12-07T06:44:25;100394.34;;;25.60;16.10
14293;BME280;62290;59.420;17.842;2022-12-07T06:46:53;100391.78;;;25.58;16.18
14293;BME280;62290;59.420;17.842;2022-12-07T06:49:42;100387.53;;;25.56;16.24
14293;BME280;62290;59.420;17.842;2022-12-07T06:52:10;100393.94;;;25.55;16.16
14293;BME280;62290;59.420;17.842;2022-12-07T06:54:38;100396.31;;;25.58;16.19
14293;BME280;62290;59.420;17.842;2022-12-07T06:57:06;100399.72;;;25.60;16.11
14293;BME280;62290;59.420;17.842;2022-12-07T06:59:34;100402.09;;;25.63;16.00
14293;BME280;62290;59.420;17.842;2022-12-07T07:02:02;100408.72;;;25.68;16.04
14293;BME280;62290;59.420;17.842;2022-12-07T07:04:30;100403.34;;;25.68;15.89
14293;BME280;62290;59.420;17.842;2022-12-07T07:06:59;100400.19;;;25.73;15.94
14293;BME280;62290;59.420;17.842;2022-12-07T07:09:27;100400.03;;;25.74;16.07
14293;BME280;62290;59.420;17.842;2022-12-07T07:11:55;100402.72;;;25.74;16.38
14293;BME280;62290;59.420;17.842;2022-12-07T07:14:23;100397.50;;;25.73;16.02
14293;BME280;62290;59.420;17.842;2022-12-07T07:16:51;100409.84;;;25.75;15.91
14293;BME280;62290;59.420;17.842;2022-12-07T07:19:20;100412.38;;;25.77;16.04
14293;BME280;62290;59.420;17.842;2022-12-07T07:21:48;100406.41;;;25.73;16.03
14293;BME280;62290;59.420;17.842;2022-12-07T07:24:17;100412.66;;;25.74;15.87
14293;BME280;62290;59.420;17.842;2022-12-07T07:26:45;100407.56;;;25.71;16.42
14293;BME280;62290;59.420;17.842;2022-12-07T07:29:13;100409.13;;;25.73;15.85
14293;BME280;62290;59.420;17.842;2022-12-07T07:31:41;100406.41;;;25.73;16.12
14293;BME280;62290;59.420;17.842;2022-12-07T07:34:09;100402.88;;;25.73;16.20
14293;BME280;62290;59.420;17.842;2022-12-07T07:36:37;100396.78;;;25.71;16.28
14293;BME280;62290;59.420;17.842;2022-12-07T07:39:05;100397.13;;;25.68;15.84
14293;BME280;62290;59.420;17.842;2022-12-07T07:41:34;100402.81;;;25.65;15.97
14293;BME280;62290;59.420;17.842;2022-12-07T07:44:03;100386.84;;;25.54;15.85
14293;BME280;62290;59.420;17.842;2022-12-07T07:46:31;100407.09;;;25.58;15.92
14293;BME280;62290;59.420;17.842;2022-12-07T07:48:59;100404.59;;;25.56;16.21
14293;BME280;62290;59.420;17.842;2022-12-07T07:51:27;100400.03;;;25.57;16.23
14293;BME280;62290;59.420;17.842;2022-12-07T07:53:55;100401.88;;;25.56;16.35
14293;BME280;62290;59.420;17.842;2022-12-07T07:56:23;100403.44;;;25.59;16.35
14293;BME280;62290;59.420;17.842;2022-12-07T07:58:53;100407.50;;;25.63;16.22
14293;BME280;62290;59.420;17.842;2022-12-07T08:01:21;100406.19;;;25.67;16.53
14293;BME280;62290;59.420;17.842;2022-12-07T08:03:49;100408.72;;;25.68;16.42
14293;BME280;62290;59.420;17.842;2022-12-07T08:06:17;100406.59;;;25.72;16.86
14293;BME280;62290;59.420;17.842;2022-12-07T08:08:45;100405.72;;;25.71;16.56
14293;BME280;62290;59.420;17.842;2022-12-07T08:11:13;100409.44;;;25.70;16.90
14293;BME280;62290;59.420;17.842;2022-12-07T08:13:41;100405.03;;;25.69;16.96
14293;BME280;62290;59.420;17.842;2022-12-07T08:16:10;100395.94;;;25.70;16.74
14293;BME280;62290;59.420;17.842;2022-12-07T08:18:39;100400.19;;;25.73;16.87
14293;BME280;62290;59.420;17.842;2022-12-07T08:21:11;100401.56;;;25.77;16.55
14293;BME280;62290;59.420;17.842;2022-12-07T08:23:40;100396.16;;;25.77;16.45
14293;BME280;62290;59.420;17.842;2022-12-07T08:26:10;100398.09;;;25.85;16.69
14293;BME280;62290;59.420;17.842;2022-12-07T08:28:38;100389.84;;;25.86;16.77
14293;BME280;62290;59.420;17.842;2022-12-07T08:31:07;100388.81;;;25.87;16.35
14293;BME280;62290;59.420;17.842;2022-12-07T08:33:37;100387.53;;;25.91;16.21
14293;BME280;62290;59.420;17.842;2022-12-07T08:36:08;100390.75;;;25.95;16.27
14293;BME280;62290;59.420;17.842;2022-12-07T08:38:38;100389.88;;;25.94;16.62
14293;BME280;62290;59.420;17.842;2022-12-07T08:41:07;100389.06;;;25.94;16.35
14293;BME280;62290;59.420;17.842;2022-12-07T08:43:35;100383.66;;;25.94;16.11
14293;BME280;62290;59.420;17.842;2022-12-07T08:46:08;100383.50;;;25.95;16.57
14293;BME280;62290;59.420;17.842;2022-12-07T08:48:42;100387.03;;;25.96;16.02
14293;BME280;62290;59.420;17.842;2022-12-07T08:51:11;100385.50;;;25.93;16.50
14293;BME280;62290;59.420;17.842;2022-12-07T08:53:40;100385.50;;;25.93;16.48
14293;BME280;62290;59.420;17.842;2022-12-07T08:56:09;100368.56;;;25.83;16.26
14293;BME280;62290;59.420;17.842;2022-12-07T08:58:37;100386.38;;;25.94;16.31
14293;BME280;62290;59.420;17.842;2022-12-07T09:01:06;100380.09;;;25.93;16.54
14293;BME280;62290;59.420;17.842;2022-12-07T09:03:34;100381.09;;;25.92;16.07
14293;BME280;62290;59.420;17.842;2022-12-07T09:06:03;100379.25;;;25.93;16.32
14293;BME280;62290;59.420;17.842;2022-12-07T09:08:35;100381.78;;;25.94;16.45
14293;BME280;62290;59.420;17.842;2022-12-07T09:11:04;100387.03;;;25.96;16.10
14293;BME280;62290;59.420;17.842;2022-12-07T09:13:32;100388.41;;;26.00;15.98
14293;BME280;62290;59.420;17.842;2022-12-07T09:16:00;100381.41;;;26.07;16.44
14293;BME280;62290;59.420;17.842;2022-12-07T09:18:28;100387.16;;;26.12;15.87
14293;BME280;62290;59.420;17.842;2022-12-07T09:20:56;100379.78;;;26.14;16.03
14293;BME280;62290;59.420;17.842;2022-12-07T09:23:26;100374.97;;;26.08;15.78
14293;BME280;62290;59.420;17.842;2022-12-07T09:25:54;100384.59;;;26.10;16.17
14293;BME280;62290;59.420;17.842;2022-12-07T09:28:22;100376.81;;;26.07;15.88
14293;BME280;62290;59.420;17.842;2022-12-07T09:30:50;100381.06;;;26.10;15.66
14293;BME280;62290;59.420;17.842;2022-12-07T09:33:37;100373.97;;;26.09;15.72
14293;BME280;62290;59.420;17.842;2022-12-07T09:36:06;100373.53;;;26.13;15.53
14293;BME280;62290;59.420;17.842;2022-12-07T09:38:36;100368.97;;;26.14;15.85
14293;BME280;62290;59.420;17.842;2022-12-07T09:41:06;100370.69;;;26.15;15.95
14293;BME280;62290;59.420;17.842;2022-12-07T09:43:35;100368.00;;;26.15;16.05
14293;BME280;62290;59.420;17.842;2022-12-07T09:46:04;100373.38;;;26.15;15.95
14293;BME280;62290;59.420;17.842;2022-12-07T09:48:35;100376.78;;;26.17;15.61
14293;BME280;62290;59.420;17.842;2022-12-07T09:51:13;100359.41;;;26.19;15.98
14293;BME280;62290;59.420;17.842;2022-12-07T09:53:51;100357.56;;;26.20;15.41
14293;BME280;62290;59.420;17.842;2022-12-07T09:56:20;100365.13;;;26.16;15.86
14293;BME280;62290;59.420;17.842;2022-12-07T09:58:50;100361.06;;;26.12;15.46
14293;BME280;62290;59.420;17.842;2022-12-07T10:01:21;100361.06;;;26.20;15.35
14293;BME280;62290;59.420;17.842;2022-12-07T10:03:50;100364.63;;;26.21;15.42
14293;BME280;62290;59.420;17.842;2022-12-07T10:06:20;100361.06;;;26.20;15.76
14293;BME280;62290;59.420;17.842;2022-12-07T10:08:48;100361.06;;;26.20;15.97
14293;BME280;62290;59.420;17.842;2022-12-07T10:11:17;100359.72;;;26.16;15.91
14293;BME280;62290;59.420;17.842;2022-12-07T10:13:46;100356.47;;;26.13;15.95
14293;BME280;62290;59.420;17.842;2022-12-07T10:16:35;100313.91;;;25.89;15.89
14293;BME280;62290;59.420;17.842;2022-12-07T10:19:20;100350.06;;;26.14;16.00
14293;BME280;62290;59.420;17.842;2022-12-07T10:22:03;100351.78;;;26.15;16.10
14293;BME280;62290;59.420;17.842;2022-12-07T10:24:31;100347.38;;;26.14;16.14
14293;BME280;62290;59.420;17.842;2022-12-07T10:27:01;100346.38;;;26.15;15.47
14293;BME280;62290;59.420;17.842;2022-12-07T10:29:30;100340.63;;;26.18;15.94
14293;BME280;62290;59.420;17.842;2022-12-07T10:32:01;100327.22;;;26.08;16.02
14293;BME280;62290;59.420;17.842;2022-12-07T10:34:31;100335.22;;;26.18;15.62
14293;BME280;62290;59.420;17.842;2022-12-07T10:37:15;100330.53;;;26.20;15.74
14293;BME280;62290;59.420;17.842;2022-12-07T10:39:45;100328.66;;;26.20;15.87
14293;BME280;62290;59.420;17.842;2022-12-07T10:42:19;100322.09;;;26.23;16.09
14293;BME280;62290;59.420;17.842;2022-12-07T10:44:47;100331.75;;;26.08;15.95
14293;BME280;62290;59.420;17.842;2022-12-07T10:47:25;100325.06;;;25.86;16.01
14293;BME280;62290;59.420;17.842;2022-12-07T10:50:12;100302.03;;;25.56;17.12
14293;BME280;62290;59.420;17.842;2022-12-07T10:52:58;100313.63;;;25.49;17.38
14293;BME280;62290;59.420;17.842;2022-12-07T10:55:40;100313.50;;;25.41;18.45
14293;BME280;62290;59.420;17.842;2022-12-07T10:58:31;100308.41;;;25.38;19.37
14293;BME280;62290;59.420;17.842;2022-12-07T11:01:09;100311.81;;;25.40;21.36
14293;BME280;62290;59.420;17.842;2022-12-07T11:03:53;100305.97;;;25.44;21.96
14293;BME280;62290;59.420;17.842;2022-12-07T11:06:29;100308.06;;;25.50;24.05
14293;BME280;62290;59.420;17.842;2022-12-07T11:09:05;100302.25;;;25.63;25.27
14293;BME280;62290;59.420;17.842;2022-12-07T11:11:47;100295.56;;;25.67;26.58
14293;BME280;62290;59.420;17.842;2022-12-07T11:14:24;100290.53;;;25.72;28.17
14293;BME280;62290;59.420;17.842;2022-12-07T11:16:58;100295.81;;;25.82;29.33
14293;BME280;62290;59.420;17.842;2022-12-07T11:19:47;100291.69;;;25.95;30.22
14293;BME280;62290;59.420;17.842;2022-12-07T11:22:24;100289.53;;;25.99;32.32
14293;BME280;62290;59.420;17.842;2022-12-07T11:24:59;100285.13;;;25.98;32.49
14293;BME280;62290;59.420;17.842;2022-12-07T11:27:37;100276.16;;;25.97;32.75
14293;BME280;62290;59.420;17.842;2022-12-07T11:30:13;100277.25;;;26.04;33.36
14293;BME280;62290;59.420;17.842;2022-12-07T11:32:53;100264.88;;;26.19;32.52
14293;BME280;62290;59.420;17.842;2022-12-07T11:35:35;100274.19;;;26.25;32.67
14293;BME280;62290;59.420;17.842;2022-12-07T11:38:11;100270.31;;;26.27;32.46
14293;BME280;62290;59.420;17.842;2022-12-07T11:40:40;100260.84;;;26.31;32.24
14293;BME280;62290;59.420;17.842;2022-12-07T11:43:17;100269.00;;;26.40;31.23
14293;BME280;62290;59.420;17.842;2022-12-07T11:45:52;100257.38;;;26.47;30.22
14293;BME280;62290;59.420;17.842;2022-12-07T11:48:24;100240.66;;;26.44;29.08
14293;BME280;62290;59.420;17.842;2022-12-07T11:50:59;100256.41;;;26.56;27.85
14293;BME280;62290;59.420;17.842;2022-12-07T11:53:33;100246.81;;;26.62;26.90
14293;BME280;62290;59.420;17.842;2022-12-07T11:56:09;100254.72;;;26.63;26.49
14293;BME280;62290;59.420;17.842;2022-12-07T11:58:51;100222.09;;;26.57;25.36
14293;BME280;62290;59.420;17.842;2022-12-07T12:01:35;100238.34;;;26.73;25.02
14293;BME280;62290;59.420;17.842;2022-12-07T12:04:21;100241.44;;;26.78;24.03
14293;BME280;62290;59.420;17.842;2022-12-07T12:06:51;100238.88;;;26.76;23.87
14293;BME280;62290;59.420;17.842;2022-12-07T12:09:25;100222.47;;;26.70;23.21
14293;BME280;62290;59.420;17.842;2022-12-07T12:12:16;100237.09;;;26.85;22.49
14293;BME280;62290;59.420;17.842;2022-12-07T12:15:21;100229.78;;;26.85;22.20
14293;BME280;62290;59.420;17.842;2022-12-07T12:18:11;100225.75;;;26.89;22.00
14293;BME280;62290;59.420;17.842;2022-12-07T12:20:45;100230.16;;;26.90;21.72
14293;BME280;62290;59.420;17.842;2022-12-07T12:23:19;100227.09;;;26.93;21.26
14293;BME280;62290;59.420;17.842;2022-12-07T12:25:51;100225.44;;;26.92;20.83
14293;BME280;62290;59.420;17.842;2022-12-07T12:28:24;100220.03;;;26.92;21.02
14293;BME280;62290;59.420;17.842;2022-12-07T12:31:09;100220.03;;;26.92;20.58
14293;BME280;62290;59.420;17.842;2022-12-07T12:33:44;100225.25;;;26.94;20.56
14293;BME280;62290;59.420;17.842;2022-12-07T12:36:20;100223.06;;;26.98;20.12
14293;BME280;62290;59.420;17.842;2022-12-07T12:39:07;100217.13;;;26.94;20.45
14293;BME280;62290;59.420;17.842;2022-12-07T12:41:56;100197.00;;;26.80;19.87
14293;BME280;62290;59.420;17.842;2022-12-07T12:50:31;100217.31;;;26.84;19.42
14293;BME280;62290;59.420;17.842;2022-12-07T12:53:16;100210.88;;;26.85;19.12
14293;BME280;62290;59.420;17.842;2022-12-07T12:56:09;100210.06;;;26.93;19.73
14293;BME280;62290;59.420;17.842;2022-12-07T12:58:44;100210.22;;;26.91;19.09
14293;BME280;62290;59.420;17.842;2022-12-07T13:01:41;100215.63;;;26.91;19.14
14293;BME280;62290;59.420;17.842;2022-12-07T13:07:58;100214.59;;;26.84;18.81
14293;BME280;62290;59.420;17.842;2022-12-07T13:10:35;100217.47;;;26.83;18.83
14293;BME280;62290;59.420;17.842;2022-12-07T13:15:52;100211.56;;;26.79;18.49
14293;BME280;62290;59.420;17.842;2022-12-07T13:18:25;100212.03;;;26.83;18.75